Ridgetown, Canada
Current Conditions -  °F | °C
As of 10:02 PM on Thursday 18 Dec 2014 (Local Time) from CYCK Reporting Station
Haze Haze  
Wind Chill: 21°   Ceiling: 700
Heat Index: 28°   Visibility: 5mi
Dew Point: 28°   Wind: 7mph
Humidity: 100%   Direction: 330°NNW
Pressure: 30.16"   Gusts: NA
Location:  42.43°N, 81.88°W
Report Text: CYCK 190302Z AUTO 33006KT 5SM BR BKN007 OVC012 M02/M02 A3016 RMK SLP221
Loading
Personal Weather Stations






























Interactive Weather Map New forecast layout! Learn more

10-Day Weather Forecast

Advertisements
Track Severe Weather on mobile